Aeroporto :
LOGIN :

Iscrizione | Disclaimer

   EN    FR    IT 

 










Sommario :    VFR   VFR Marginale   IFR   IFR Intensivo   IFR Molto Intensivo
Visibilità : 
Base nubi : 
>= 8 km
>= 3000ft
5 / 8 km
1000 / 3000 ft
1500m / 5 km
500 / 1000 ft
800 / 1500m
200 / 500 ft
< 800m
< 200 ft
Simboli :   Temporali  Nebbia  Neve Forte  Precipitazioni Forti  Vento > 20 kt
SIGMETs :   Varie  Temporali  Ghiacco  Turbolenza  Onda orograficha  Ceneri Vulcaniche







- Altitudine del aeroporto : 1197 ft
- Codice IATA : SPM


ETAD - Spangdahlem Ab

ULTIMO METAR :
  • 191156Z AUTO 24006KT 9999 BKN023 BKN030 OVC036 20/15 A3028 RMK AO2 CIG 020 RWY05 SLP236 T02010147 10201 20149 50001 $

METARs OBSOLETI :
  • 191126Z AUTO 24006KT 9999 BKN021 BKN027 19/14 A3028 RMK AO2 SLP237 $
  • 191111Z AUTO 21007KT 9999 BKN019 BKN026 BKN034 20/15 A3028 RMK AO2 SLP236 $
  • 191056Z AUTO 25005KT 9999 SCT016 BKN027 BKN035 BKN190 20/15 A3028 RMK AO2 CIG 016V027 CIG 023 RWY05 SLP236 T01960148 $
  • 191026Z AUTO 27005KT 9999 BKN015 BKN020 BKN025 OVC170 19/15 A3028 RMK AO2 SLP237 $
  • 190956Z AUTO 23006KT 9999 OVC013 18/14 A3028 RMK AO2 SLP237 T01770144 $

TAF TAF ETAD
Valido dal 19 a 11 ore il 20 a 17 ore UTC


191106Z 1911/2017 22006KT 9999 BKN020 QNH3024INS
TEMPO 1911/1914 BKN015
BECMG 1913/1914 VRB06KT 9999 BKN020 QNH3017INS
TEMPO 2000/2005 3200 BR BKN010
BECMG 2011/2012 VRB06KT 9999 SCT040 QNH3025INS TX22/1915Z TN13/2004Z
Nessun NOTAM noto per questo aeroporto.



MetMap, La meteo Aeronautica in un colpo d'occhio ! - Copyright ORBIFLY Dicembre 2007 - Disclaimer

ORBIFLY MET'MAP TEAM :

Programmazione e sviluppo : Alexandra Zaïnal
Concezione e sviluppo : Baudouin d'Aumeries
Co-Programmazione e sviluppo : Marc-Olivier Méhu
Supporto tecnico e logistico : Manuel Goepfert
Aiuto per la traduzione : Arnaldo La Scala

Contatto : metmap@orbifly.com




FONTI E CREDITI :

   NOAA